sensor_id;sensor_type;location;lat;lon;timestamp;P1;durP1;ratioP1;P2;durP2;ratioP2
71083;SDS011;58741;52.672;13.548;2023-12-07T00:02:03;9.80;;;3.92;;
71083;SDS011;58741;52.672;13.548;2023-12-07T00:04:30;8.23;;;4.13;;
71083;SDS011;58741;52.672;13.548;2023-12-07T00:06:57;4.82;;;3.00;;
71083;SDS011;58741;52.672;13.548;2023-12-07T00:09:24;6.63;;;3.28;;
71083;SDS011;58741;52.672;13.548;2023-12-07T00:11:51;6.55;;;3.65;;
71083;SDS011;58741;52.672;13.548;2023-12-07T00:14:18;5.15;;;2.97;;
71083;SDS011;58741;52.672;13.548;2023-12-07T00:16:45;6.15;;;3.13;;
71083;SDS011;58741;52.672;13.548;2023-12-07T00:19:11;6.75;;;3.30;;
71083;SDS011;58741;52.672;13.548;2023-12-07T00:21:38;7.25;;;3.33;;
71083;SDS011;58741;52.672;13.548;2023-12-07T00:24:05;6.32;;;2.95;;
71083;SDS011;58741;52.672;13.548;2023-12-07T00:26:32;7.18;;;3.53;;
71083;SDS011;58741;52.672;13.548;2023-12-07T00:28:59;5.45;;;3.08;;
71083;SDS011;58741;52.672;13.548;2023-12-07T00:31:25;8.32;;;4.07;;
71083;SDS011;58741;52.672;13.548;2023-12-07T00:33:52;7.05;;;3.20;;
71083;SDS011;58741;52.672;13.548;2023-12-07T00:36:19;4.97;;;2.90;;
71083;SDS011;58741;52.672;13.548;2023-12-07T00:38:46;6.93;;;4.03;;
71083;SDS011;58741;52.672;13.548;2023-12-07T00:41:13;4.70;;;2.97;;
71083;SDS011;58741;52.672;13.548;2023-12-07T00:43:40;6.47;;;3.20;;
71083;SDS011;58741;52.672;13.548;2023-12-07T00:46:07;8.45;;;3.75;;
71083;SDS011;58741;52.672;13.548;2023-12-07T00:48:34;10.27;;;4.00;;
71083;SDS011;58741;52.672;13.548;2023-12-07T00:51:01;9.02;;;4.00;;
71083;SDS011;58741;52.672;13.548;2023-12-07T00:53:29;8.85;;;3.65;;
71083;SDS011;58741;52.672;13.548;2023-12-07T00:55:55;6.55;;;3.33;;
71083;SDS011;58741;52.672;13.548;2023-12-07T00:58:22;6.72;;;3.15;;
71083;SDS011;58741;52.672;13.548;2023-12-07T01:00:49;6.90;;;3.35;;
71083;SDS011;58741;52.672;13.548;2023-12-07T01:03:17;6.15;;;3.90;;
71083;SDS011;58741;52.672;13.548;2023-12-07T01:05:44;8.75;;;3.80;;
71083;SDS011;58741;52.672;13.548;2023-12-07T01:08:11;7.15;;;4.15;;
71083;SDS011;58741;52.672;13.548;2023-12-07T01:10:37;8.18;;;4.57;;
71083;SDS011;58741;52.672;13.548;2023-12-07T01:13:04;8.85;;;4.45;;
71083;SDS011;58741;52.672;13.548;2023-12-07T01:15:31;10.48;;;4.43;;
71083;SDS011;58741;52.672;13.548;2023-12-07T01:17:58;10.00;;;4.95;;
71083;SDS011;58741;52.672;13.548;2023-12-07T01:20:25;7.53;;;4.53;;
71083;SDS011;58741;52.672;13.548;2023-12-07T01:22:52;8.80;;;4.10;;
71083;SDS011;58741;52.672;13.548;2023-12-07T01:25:19;9.70;;;3.92;;
71083;SDS011;58741;52.672;13.548;2023-12-07T01:27:49;5.28;;;3.08;;
71083;SDS011;58741;52.672;13.548;2023-12-07T01:30:15;6.97;;;3.58;;
71083;SDS011;58741;52.672;13.548;2023-12-07T01:32:43;9.02;;;3.90;;
71083;SDS011;58741;52.672;13.548;2023-12-07T01:35:10;6.75;;;3.80;;
71083;SDS011;58741;52.672;13.548;2023-12-07T01:37:37;6.25;;;3.72;;
71083;SDS011;58741;52.672;13.548;2023-12-07T01:40:04;9.65;;;3.78;;
71083;SDS011;58741;52.672;13.548;2023-12-07T01:42:39;7.80;;;3.67;;
71083;SDS011;58741;52.672;13.548;2023-12-07T01:45:06;7.95;;;3.88;;
71083;SDS011;58741;52.672;13.548;2023-12-07T01:47:33;10.02;;;4.22;;
71083;SDS011;58741;52.672;13.548;2023-12-07T01:50:01;6.25;;;3.33;;
71083;SDS011;58741;52.672;13.548;2023-12-07T01:52:31;7.47;;;4.00;;
71083;SDS011;58741;52.672;13.548;2023-12-07T01:55:00;5.75;;;3.50;;
71083;SDS011;58741;52.672;13.548;2023-12-07T01:57:27;6.88;;;3.80;;
71083;SDS011;58741;52.672;13.548;2023-12-07T01:59:55;5.95;;;3.38;;
71083;SDS011;58741;52.672;13.548;2023-12-07T02:02:22;8.93;;;3.50;;
71083;SDS011;58741;52.672;13.548;2023-12-07T02:04:50;7.00;;;3.47;;
71083;SDS011;58741;52.672;13.548;2023-12-07T02:07:17;9.50;;;3.40;;
71083;SDS011;58741;52.672;13.548;2023-12-07T02:09:44;5.72;;;3.40;;
71083;SDS011;58741;52.672;13.548;2023-12-07T02:12:10;6.72;;;3.38;;
71083;SDS011;58741;52.672;13.548;2023-12-07T02:14:37;7.50;;;3.50;;
71083;SDS011;58741;52.672;13.548;2023-12-07T02:17:09;8.30;;;3.90;;
71083;SDS011;58741;52.672;13.548;2023-12-07T02:22:18;4.85;;;3.25;;
71083;SDS011;58741;52.672;13.548;2023-12-07T02:25:01;9.00;;;3.70;;
71083;SDS011;58741;52.672;13.548;2023-12-07T02:27:35;10.63;;;4.28;;
71083;SDS011;58741;52.672;13.548;2023-12-07T02:30:03;6.38;;;3.85;;
71083;SDS011;58741;52.672;13.548;2023-12-07T02:32:30;6.35;;;3.83;;
71083;SDS011;58741;52.672;13.548;2023-12-07T02:34:57;7.93;;;3.83;;
71083;SDS011;58741;52.672;13.548;2023-12-07T02:37:24;7.88;;;4.30;;
71083;SDS011;58741;52.672;13.548;2023-12-07T02:39:55;6.20;;;3.80;;
71083;SDS011;58741;52.672;13.548;2023-12-07T02:42:24;4.85;;;3.08;;
71083;SDS011;58741;52.672;13.548;2023-12-07T02:44:52;7.13;;;3.13;;
71083;SDS011;58741;52.672;13.548;2023-12-07T02:47:20;6.57;;;3.65;;
71083;SDS011;58741;52.672;13.548;2023-12-07T02:49:46;11.13;;;4.20;;
71083;SDS011;58741;52.672;13.548;2023-12-07T02:52:13;9.50;;;3.90;;
71083;SDS011;58741;52.672;13.548;2023-12-07T02:54:40;8.32;;;3.72;;
71083;SDS011;58741;52.672;13.548;2023-12-07T02:57:07;9.10;;;4.18;;
71083;SDS011;58741;52.672;13.548;2023-12-07T02:59:34;9.05;;;3.63;;
71083;SDS011;58741;52.672;13.548;2023-12-07T03:02:01;7.47;;;3.67;;
71083;SDS011;58741;52.672;13.548;2023-12-07T03:04:28;8.45;;;3.38;;
71083;SDS011;58741;52.672;13.548;2023-12-07T03:06:54;5.85;;;3.50;;
71083;SDS011;58741;52.672;13.548;2023-12-07T03:09:21;7.55;;;3.42;;
71083;SDS011;58741;52.672;13.548;2023-12-07T03:11:48;8.50;;;3.78;;
71083;SDS011;58741;52.672;13.548;2023-12-07T03:14:15;11.55;;;3.92;;
71083;SDS011;58741;52.672;13.548;2023-12-07T03:16:41;9.65;;;4.35;;
71083;SDS011;58741;52.672;13.548;2023-12-07T03:19:08;7.35;;;3.63;;
71083;SDS011;58741;52.672;13.548;2023-12-07T03:21:38;7.13;;;3.38;;
71083;SDS011;58741;52.672;13.548;2023-12-07T03:24:06;7.80;;;3.38;;
71083;SDS011;58741;52.672;13.548;2023-12-07T03:26:34;5.55;;;3.10;;
71083;SDS011;58741;52.672;13.548;2023-12-07T03:29:01;7.00;;;3.22;;
71083;SDS011;58741;52.672;13.548;2023-12-07T03:31:28;10.10;;;3.42;;
71083;SDS011;58741;52.672;13.548;2023-12-07T03:33:55;8.98;;;4.50;;
71083;SDS011;58741;52.672;13.548;2023-12-07T03:36:22;11.95;;;4.25;;
71083;SDS011;58741;52.672;13.548;2023-12-07T03:38:49;9.10;;;4.32;;
71083;SDS011;58741;52.672;13.548;2023-12-07T03:41:16;7.30;;;3.85;;
71083;SDS011;58741;52.672;13.548;2023-12-07T03:43:43;6.70;;;3.40;;
71083;SDS011;58741;52.672;13.548;2023-12-07T03:46:10;8.07;;;3.33;;
71083;SDS011;58741;52.672;13.548;2023-12-07T03:48:36;7.07;;;3.72;;
71083;SDS011;58741;52.672;13.548;2023-12-07T03:51:03;7.90;;;4.30;;
71083;SDS011;58741;52.672;13.548;2023-12-07T03:53:31;9.57;;;4.68;;
71083;SDS011;58741;52.672;13.548;2023-12-07T03:55:57;15.57;;;5.88;;
71083;SDS011;58741;52.672;13.548;2023-12-07T03:58:24;13.15;;;5.45;;
71083;SDS011;58741;52.672;13.548;2023-12-07T04:00:51;11.93;;;5.63;;
71083;SDS011;58741;52.672;13.548;2023-12-07T04:03:18;12.98;;;5.75;;
71083;SDS011;58741;52.672;13.548;2023-12-07T04:05:45;15.32;;;6.00;;
71083;SDS011;58741;52.672;13.548;2023-12-07T04:08:11;8.85;;;4.90;;
71083;SDS011;58741;52.672;13.548;2023-12-07T04:10:38;13.75;;;5.75;;
71083;SDS011;58741;52.672;13.548;2023-12-07T04:13:06;16.77;;;6.32;;
71083;SDS011;58741;52.672;13.548;2023-12-07T04:15:33;13.02;;;5.35;;
71083;SDS011;58741;52.672;13.548;2023-12-07T04:18:00;10.32;;;4.18;;
71083;SDS011;58741;52.672;13.548;2023-12-07T04:20:26;8.95;;;4.10;;
71083;SDS011;58741;52.672;13.548;2023-12-07T04:22:54;10.15;;;3.78;;
71083;SDS011;58741;52.672;13.548;2023-12-07T04:25:21;11.50;;;4.45;;
71083;SDS011;58741;52.672;13.548;2023-12-07T04:27:48;7.93;;;3.65;;
71083;SDS011;58741;52.672;13.548;2023-12-07T04:30:15;6.93;;;3.35;;
71083;SDS011;58741;52.672;13.548;2023-12-07T04:32:42;11.90;;;4.50;;
71083;SDS011;58741;52.672;13.548;2023-12-07T04:35:09;10.90;;;4.43;;
71083;SDS011;58741;52.672;13.548;2023-12-07T04:37:36;7.53;;;3.20;;
71083;SDS011;58741;52.672;13.548;2023-12-07T04:40:03;8.93;;;4.43;;
71083;SDS011;58741;52.672;13.548;2023-12-07T04:42:31;8.80;;;4.05;;
71083;SDS011;58741;52.672;13.548;2023-12-07T04:44:58;11.13;;;3.53;;
71083;SDS011;58741;52.672;13.548;2023-12-07T04:47:25;11.10;;;4.30;;
71083;SDS011;58741;52.672;13.548;2023-12-07T04:49:51;7.93;;;3.90;;
71083;SDS011;58741;52.672;13.548;2023-12-07T04:52:18;9.77;;;4.05;;
71083;SDS011;58741;52.672;13.548;2023-12-07T04:54:45;9.02;;;4.38;;
71083;SDS011;58741;52.672;13.548;2023-12-07T04:57:13;9.38;;;3.95;;
71083;SDS011;58741;52.672;13.548;2023-12-07T04:59:39;9.57;;;4.75;;
71083;SDS011;58741;52.672;13.548;2023-12-07T05:02:07;10.35;;;4.88;;
71083;SDS011;58741;52.672;13.548;2023-12-07T05:04:33;7.50;;;4.18;;
71083;SDS011;58741;52.672;13.548;2023-12-07T05:07:00;8.10;;;3.70;;
71083;SDS011;58741;52.672;13.548;2023-12-07T05:09:29;7.47;;;3.33;;
71083;SDS011;58741;52.672;13.548;2023-12-07T05:11:57;9.73;;;4.90;;
71083;SDS011;58741;52.672;13.548;2023-12-07T05:14:24;11.30;;;5.03;;
71083;SDS011;58741;52.672;13.548;2023-12-07T05:16:51;9.07;;;4.75;;
71083;SDS011;58741;52.672;13.548;2023-12-07T05:19:20;9.20;;;4.57;;
71083;SDS011;58741;52.672;13.548;2023-12-07T05:21:50;11.63;;;3.97;;
71083;SDS011;58741;52.672;13.548;2023-12-07T05:24:17;7.63;;;3.50;;
71083;SDS011;58741;52.672;13.548;2023-12-07T05:26:44;7.18;;;3.55;;
71083;SDS011;58741;52.672;13.548;2023-12-07T05:29:14;10.35;;;3.35;;
71083;SDS011;58741;52.672;13.548;2023-12-07T05:31:41;8.73;;;3.70;;
71083;SDS011;58741;52.672;13.548;2023-12-07T05:34:08;13.00;;;4.15;;
71083;SDS011;58741;52.672;13.548;2023-12-07T05:36:35;9.40;;;4.15;;
71083;SDS011;58741;52.672;13.548;2023-12-07T05:39:02;11.48;;;3.65;;
71083;SDS011;58741;52.672;13.548;2023-12-07T05:41:29;9.80;;;4.22;;
71083;SDS011;58741;52.672;13.548;2023-12-07T05:43:55;9.25;;;4.18;;
71083;SDS011;58741;52.672;13.548;2023-12-07T05:46:22;9.20;;;4.75;;
71083;SDS011;58741;52.672;13.548;2023-12-07T05:48:49;7.80;;;3.35;;
71083;SDS011;58741;52.672;13.548;2023-12-07T05:51:18;8.73;;;4.15;;
71083;SDS011;58741;52.672;13.548;2023-12-07T05:53:46;9.70;;;4.13;;
71083;SDS011;58741;52.672;13.548;2023-12-07T05:56:17;12.88;;;4.50;;
71083;SDS011;58741;52.672;13.548;2023-12-07T05:58:46;10.52;;;4.35;;
71083;SDS011;58741;52.672;13.548;2023-12-07T06:01:16;12.43;;;4.45;;
71083;SDS011;58741;52.672;13.548;2023-12-07T06:03:45;9.02;;;4.28;;
71083;SDS011;58741;52.672;13.548;2023-12-07T06:06:11;12.68;;;4.22;;
71083;SDS011;58741;52.672;13.548;2023-12-07T06:08:38;11.25;;;3.95;;
71083;SDS011;58741;52.672;13.548;2023-12-07T06:11:05;8.98;;;3.80;;
71083;SDS011;58741;52.672;13.548;2023-12-07T06:13:32;6.72;;;3.67;;
71083;SDS011;58741;52.672;13.548;2023-12-07T06:16:00;8.63;;;3.67;;
71083;SDS011;58741;52.672;13.548;2023-12-07T06:18:29;12.95;;;4.25;;
71083;SDS011;58741;52.672;13.548;2023-12-07T06:20:56;8.02;;;3.63;;
71083;SDS011;58741;52.672;13.548;2023-12-07T06:23:23;9.38;;;3.42;;
71083;SDS011;58741;52.672;13.548;2023-12-07T06:25:49;8.55;;;3.92;;
71083;SDS011;58741;52.672;13.548;2023-12-07T06:28:16;14.30;;;4.68;;
71083;SDS011;58741;52.672;13.548;2023-12-07T06:30:43;10.95;;;3.90;;
71083;SDS011;58741;52.672;13.548;2023-12-07T06:33:11;11.07;;;3.97;;
71083;SDS011;58741;52.672;13.548;2023-12-07T06:35:38;9.45;;;4.53;;
71083;SDS011;58741;52.672;13.548;2023-12-07T06:38:05;7.07;;;3.47;;
71083;SDS011;58741;52.672;13.548;2023-12-07T06:40:31;5.80;;;3.15;;
71083;SDS011;58741;52.672;13.548;2023-12-07T06:42:59;9.20;;;3.85;;
71083;SDS011;58741;52.672;13.548;2023-12-07T06:45:26;8.50;;;3.78;;
71083;SDS011;58741;52.672;13.548;2023-12-07T06:47:53;11.98;;;4.38;;
71083;SDS011;58741;52.672;13.548;2023-12-07T06:50:19;10.27;;;3.83;;
71083;SDS011;58741;52.672;13.548;2023-12-07T06:52:47;8.15;;;3.67;;
71083;SDS011;58741;52.672;13.548;2023-12-07T06:55:14;12.40;;;4.07;;
71083;SDS011;58741;52.672;13.548;2023-12-07T06:57:42;6.75;;;3.38;;
71083;SDS011;58741;52.672;13.548;2023-12-07T07:00:08;7.97;;;3.75;;
71083;SDS011;58741;52.672;13.548;2023-12-07T07:02:39;10.45;;;4.82;;
71083;SDS011;58741;52.672;13.548;2023-12-07T07:05:07;8.63;;;4.07;;
71083;SDS011;58741;52.672;13.548;2023-12-07T07:07:35;8.98;;;3.40;;
71083;SDS011;58741;52.672;13.548;2023-12-07T07:10:02;12.32;;;4.50;;
71083;SDS011;58741;52.672;13.548;2023-12-07T07:12:29;9.43;;;4.38;;
71083;SDS011;58741;52.672;13.548;2023-12-07T07:14:56;9.95;;;4.03;;
71083;SDS011;58741;52.672;13.548;2023-12-07T07:17:23;7.90;;;3.85;;
71083;SDS011;58741;52.672;13.548;2023-12-07T07:19:50;9.80;;;3.63;;
71083;SDS011;58741;52.672;13.548;2023-12-07T07:22:17;6.40;;;3.15;;
71083;SDS011;58741;52.672;13.548;2023-12-07T07:24:44;13.15;;;4.32;;
71083;SDS011;58741;52.672;13.548;2023-12-07T07:27:11;7.75;;;3.85;;
71083;SDS011;58741;52.672;13.548;2023-12-07T07:29:37;6.25;;;3.35;;
71083;SDS011;58741;52.672;13.548;2023-12-07T07:32:04;10.15;;;3.63;;
71083;SDS011;58741;52.672;13.548;2023-12-07T07:34:32;8.77;;;4.07;;
71083;SDS011;58741;52.672;13.548;2023-12-07T07:36:59;11.95;;;3.67;;
71083;SDS011;58741;52.672;13.548;2023-12-07T07:39:25;8.82;;;4.00;;
71083;SDS011;58741;52.672;13.548;2023-12-07T07:41:52;7.40;;;4.00;;
71083;SDS011;58741;52.672;13.548;2023-12-07T07:44:19;8.88;;;3.97;;
71083;SDS011;58741;52.672;13.548;2023-12-07T07:46:46;10.05;;;4.35;;
71083;SDS011;58741;52.672;13.548;2023-12-07T07:49:12;11.52;;;4.65;;
71083;SDS011;58741;52.672;13.548;2023-12-07T07:51:39;9.15;;;4.95;;
71083;SDS011;58741;52.672;13.548;2023-12-07T07:54:06;15.45;;;5.68;;
71083;SDS011;58741;52.672;13.548;2023-12-07T07:56:33;14.48;;;5.50;;
71083;SDS011;58741;52.672;13.548;2023-12-07T07:59:00;11.18;;;4.28;;
71083;SDS011;58741;52.672;13.548;2023-12-07T08:01:26;9.90;;;4.70;;
71083;SDS011;58741;52.672;13.548;2023-12-07T08:03:53;8.93;;;4.65;;
71083;SDS011;58741;52.672;13.548;2023-12-07T08:06:20;8.93;;;4.28;;
71083;SDS011;58741;52.672;13.548;2023-12-07T08:08:47;17.75;;;4.88;;
71083;SDS011;58741;52.672;13.548;2023-12-07T08:11:15;13.32;;;4.45;;
71083;SDS011;58741;52.672;13.548;2023-12-07T08:13:42;10.20;;;4.65;;
71083;SDS011;58741;52.672;13.548;2023-12-07T08:16:10;9.73;;;4.20;;
71083;SDS011;58741;52.672;13.548;2023-12-07T08:18:36;12.43;;;4.47;;
71083;SDS011;58741;52.672;13.548;2023-12-07T08:21:04;6.85;;;3.63;;
71083;SDS011;58741;52.672;13.548;2023-12-07T08:23:31;9.88;;;4.03;;
71083;SDS011;58741;52.672;13.548;2023-12-07T08:25:58;8.52;;;3.92;;
71083;SDS011;58741;52.672;13.548;2023-12-07T08:28:24;13.32;;;5.30;;
71083;SDS011;58741;52.672;13.548;2023-12-07T08:30:51;15.07;;;4.97;;
71083;SDS011;58741;52.672;13.548;2023-12-07T08:33:18;9.23;;;4.38;;
71083;SDS011;58741;52.672;13.548;2023-12-07T08:35:45;10.60;;;5.40;;
71083;SDS011;58741;52.672;13.548;2023-12-07T08:38:12;12.48;;;4.65;;
71083;SDS011;58741;52.672;13.548;2023-12-07T08:40:39;11.55;;;4.72;;
71083;SDS011;58741;52.672;13.548;2023-12-07T08:43:06;10.18;;;4.97;;
71083;SDS011;58741;52.672;13.548;2023-12-07T08:45:32;19.88;;;8.32;;
71083;SDS011;58741;52.672;13.548;2023-12-07T08:48:00;20.58;;;8.63;;
71083;SDS011;58741;52.672;13.548;2023-12-07T08:50:27;16.38;;;6.30;;
71083;SDS011;58741;52.672;13.548;2023-12-07T08:52:54;13.15;;;5.60;;
71083;SDS011;58741;52.672;13.548;2023-12-07T08:55:29;11.15;;;5.10;;
71083;SDS011;58741;52.672;13.548;2023-12-07T08:57:57;13.23;;;5.30;;
71083;SDS011;58741;52.672;13.548;2023-12-07T09:00:25;14.30;;;5.35;;
71083;SDS011;58741;52.672;13.548;2023-12-07T09:02:52;11.68;;;4.93;;
71083;SDS011;58741;52.672;13.548;2023-12-07T09:05:19;10.93;;;4.95;;
71083;SDS011;58741;52.672;13.548;2023-12-07T09:07:46;8.95;;;4.85;;
71083;SDS011;58741;52.672;13.548;2023-12-07T09:10:13;10.32;;;4.93;;
71083;SDS011;58741;52.672;13.548;2023-12-07T09:12:40;11.30;;;4.50;;
71083;SDS011;58741;52.672;13.548;2023-12-07T09:15:07;7.45;;;3.20;;
71083;SDS011;58741;52.672;13.548;2023-12-07T09:17:34;13.75;;;5.22;;
71083;SDS011;58741;52.672;13.548;2023-12-07T09:20:02;9.95;;;4.43;;
71083;SDS011;58741;52.672;13.548;2023-12-07T09:22:44;11.57;;;5.03;;
71083;SDS011;58741;52.672;13.548;2023-12-07T09:25:12;10.00;;;4.32;;
71083;SDS011;58741;52.672;13.548;2023-12-07T09:27:40;17.20;;;6.63;;
71083;SDS011;58741;52.672;13.548;2023-12-07T09:30:07;15.55;;;5.25;;
71083;SDS011;58741;52.672;13.548;2023-12-07T09:32:37;15.07;;;5.50;;
71083;SDS011;58741;52.672;13.548;2023-12-07T09:35:10;11.98;;;4.30;;
71083;SDS011;58741;52.672;13.548;2023-12-07T09:37:41;12.73;;;6.18;;
71083;SDS011;58741;52.672;13.548;2023-12-07T09:40:10;19.55;;;7.35;;
71083;SDS011;58741;52.672;13.548;2023-12-07T09:42:43;21.05;;;7.20;;
71083;SDS011;58741;52.672;13.548;2023-12-07T09:45:11;16.52;;;6.40;;
71083;SDS011;58741;52.672;13.548;2023-12-07T09:47:39;18.33;;;7.28;;
71083;SDS011;58741;52.672;13.548;2023-12-07T09:50:07;15.52;;;5.80;;
71083;SDS011;58741;52.672;13.548;2023-12-07T09:52:35;16.02;;;7.25;;
71083;SDS011;58741;52.672;13.548;2023-12-07T09:55:02;18.15;;;6.57;;
71083;SDS011;58741;52.672;13.548;2023-12-07T09:57:30;12.15;;;5.43;;
71083;SDS011;58741;52.672;13.548;2023-12-07T09:59:59;13.75;;;6.20;;
71083;SDS011;58741;52.672;13.548;2023-12-07T10:02:26;14.05;;;6.57;;
71083;SDS011;58741;52.672;13.548;2023-12-07T10:07:33;17.30;;;6.40;;
71083;SDS011;58741;52.672;13.548;2023-12-07T10:10:03;13.00;;;5.75;;
71083;SDS011;58741;52.672;13.548;2023-12-07T10:12:31;15.50;;;5.70;;
71083;SDS011;58741;52.672;13.548;2023-12-07T10:15:11;9.07;;;5.03;;
71083;SDS011;58741;52.672;13.548;2023-12-07T10:17:46;11.75;;;5.45;;
71083;SDS011;58741;52.672;13.548;2023-12-07T10:20:24;13.52;;;5.40;;
71083;SDS011;58741;52.672;13.548;2023-12-07T10:23:02;14.93;;;6.10;;
71083;SDS011;58741;52.672;13.548;2023-12-07T10:25:38;13.30;;;6.20;;
71083;SDS011;58741;52.672;13.548;2023-12-07T10:28:07;9.23;;;4.70;;
71083;SDS011;58741;52.672;13.548;2023-12-07T10:30:37;12.27;;;4.93;;
71083;SDS011;58741;52.672;13.548;2023-12-07T10:33:09;14.65;;;5.68;;
71083;SDS011;58741;52.672;13.548;2023-12-07T10:35:39;13.13;;;5.40;;
71083;SDS011;58741;52.672;13.548;2023-12-07T10:38:07;14.02;;;5.13;;
71083;SDS011;58741;52.672;13.548;2023-12-07T10:40:35;11.75;;;4.25;;
71083;SDS011;58741;52.672;13.548;2023-12-07T10:43:04;15.65;;;5.15;;
71083;SDS011;58741;52.672;13.548;2023-12-07T10:45:34;12.80;;;4.88;;
71083;SDS011;58741;52.672;13.548;2023-12-07T10:48:06;11.32;;;5.15;;
71083;SDS011;58741;52.672;13.548;2023-12-07T10:50:36;11.52;;;4.43;;
71083;SDS011;58741;52.672;13.548;2023-12-07T10:55:56;12.82;;;5.70;;
71083;SDS011;58741;52.672;13.548;2023-12-07T10:58:27;12.80;;;5.32;;
71083;SDS011;58741;52.672;13.548;2023-12-07T11:00:54;12.48;;;4.97;;
71083;SDS011;58741;52.672;13.548;2023-12-07T11:03:22;12.13;;;4.63;;
71083;SDS011;58741;52.672;13.548;2023-12-07T11:05:50;14.48;;;4.95;;
71083;SDS011;58741;52.672;13.548;2023-12-07T11:11:10;9.10;;;4.43;;
71083;SDS011;58741;52.672;13.548;2023-12-07T11:13:52;6.75;;;3.28;;
71083;SDS011;58741;52.672;13.548;2023-12-07T11:16:39;10.20;;;4.80;;
71083;SDS011;58741;52.672;13.548;2023-12-07T11:19:34;10.00;;;4.55;;
71083;SDS011;58741;52.672;13.548;2023-12-07T11:22:11;9.00;;;4.47;;
71083;SDS011;58741;52.672;13.548;2023-12-07T11:24:51;11.60;;;5.05;;
71083;SDS011;58741;52.672;13.548;2023-12-07T11:27:20;10.20;;;4.80;;
71083;SDS011;58741;52.672;13.548;2023-12-07T11:29:48;11.93;;;5.35;;
71083;SDS011;58741;52.672;13.548;2023-12-07T11:32:15;16.35;;;5.53;;
71083;SDS011;58741;52.672;13.548;2023-12-07T11:34:53;10.15;;;5.15;;
71083;SDS011;58741;52.672;13.548;2023-12-07T11:37:20;16.10;;;6.07;;
71083;SDS011;58741;52.672;13.548;2023-12-07T11:39:47;11.23;;;5.18;;
71083;SDS011;58741;52.672;13.548;2023-12-07T11:42:16;8.85;;;4.72;;
71083;SDS011;58741;52.672;13.548;2023-12-07T11:44:47;9.25;;;4.13;;
71083;SDS011;58741;52.672;13.548;2023-12-07T11:47:18;9.63;;;4.70;;
71083;SDS011;58741;52.672;13.548;2023-12-07T11:49:46;9.27;;;3.65;;
71083;SDS011;58741;52.672;13.548;2023-12-07T11:52:17;8.05;;;3.78;;
71083;SDS011;58741;52.672;13.548;2023-12-07T11:54:45;11.10;;;4.47;;
71083;SDS011;58741;52.672;13.548;2023-12-07T11:57:13;9.00;;;5.15;;
71083;SDS011;58741;52.672;13.548;2023-12-07T11:59:41;11.98;;;5.30;;
71083;SDS011;58741;52.672;13.548;2023-12-07T12:02:11;14.93;;;6.72;;
71083;SDS011;58741;52.672;13.548;2023-12-07T12:04:40;16.70;;;6.90;;
71083;SDS011;58741;52.672;13.548;2023-12-07T12:07:07;18.08;;;6.07;;
71083;SDS011;58741;52.672;13.548;2023-12-07T12:09:34;15.60;;;6.65;;
71083;SDS011;58741;52.672;13.548;2023-12-07T12:12:01;11.27;;;5.88;;
71083;SDS011;58741;52.672;13.548;2023-12-07T12:14:28;14.88;;;5.53;;
71083;SDS011;58741;52.672;13.548;2023-12-07T12:16:56;14.60;;;6.82;;
71083;SDS011;58741;52.672;13.548;2023-12-07T12:19:23;14.73;;;6.38;;
71083;SDS011;58741;52.672;13.548;2023-12-07T12:22:00;15.05;;;6.75;;
71083;SDS011;58741;52.672;13.548;2023-12-07T12:24:32;7.85;;;4.65;;
71083;SDS011;58741;52.672;13.548;2023-12-07T12:27:04;13.75;;;5.95;;
71083;SDS011;58741;52.672;13.548;2023-12-07T12:29:31;15.70;;;6.70;;
71083;SDS011;58741;52.672;13.548;2023-12-07T12:32:01;12.18;;;5.82;;
71083;SDS011;58741;52.672;13.548;2023-12-07T12:34:29;11.55;;;5.65;;
71083;SDS011;58741;52.672;13.548;2023-12-07T12:36:58;11.73;;;5.45;;
71083;SDS011;58741;52.672;13.548;2023-12-07T12:39:27;17.48;;;4.53;;
71083;SDS011;58741;52.672;13.548;2023-12-07T12:41:59;9.50;;;4.20;;
71083;SDS011;58741;52.672;13.548;2023-12-07T12:44:28;8.07;;;4.30;;
71083;SDS011;58741;52.672;13.548;2023-12-07T12:47:06;8.20;;;3.97;;
71083;SDS011;58741;52.672;13.548;2023-12-07T12:49:38;9.52;;;4.30;;
71083;SDS011;58741;52.672;13.548;2023-12-07T12:52:10;9.27;;;4.82;;
71083;SDS011;58741;52.672;13.548;2023-12-07T12:54:38;4.80;;;2.88;;
71083;SDS011;58741;52.672;13.548;2023-12-07T12:57:06;9.63;;;4.05;;
71083;SDS011;58741;52.672;13.548;2023-12-07T12:59:34;11.32;;;4.38;;
71083;SDS011;58741;52.672;13.548;2023-12-07T13:02:02;8.63;;;3.67;;
71083;SDS011;58741;52.672;13.548;2023-12-07T13:04:32;10.07;;;4.05;;
71083;SDS011;58741;52.672;13.548;2023-12-07T13:07:03;6.18;;;3.75;;
71083;SDS011;58741;52.672;13.548;2023-12-07T13:09:30;10.38;;;4.40;;
71083;SDS011;58741;52.672;13.548;2023-12-07T13:11:57;10.52;;;4.15;;
71083;SDS011;58741;52.672;13.548;2023-12-07T13:14:29;8.20;;;3.53;;
71083;SDS011;58741;52.672;13.548;2023-12-07T13:16:57;8.20;;;4.05;;
71083;SDS011;58741;52.672;13.548;2023-12-07T13:19:24;7.72;;;3.75;;
71083;SDS011;58741;52.672;13.548;2023-12-07T13:21:51;9.48;;;3.78;;
71083;SDS011;58741;52.672;13.548;2023-12-07T13:24:18;8.88;;;3.85;;
71083;SDS011;58741;52.672;13.548;2023-12-07T13:26:45;9.00;;;4.50;;
71083;SDS011;58741;52.672;13.548;2023-12-07T13:29:13;9.82;;;4.03;;
71083;SDS011;58741;52.672;13.548;2023-12-07T13:31:54;9.02;;;4.38;;
71083;SDS011;58741;52.672;13.548;2023-12-07T13:34:20;11.32;;;3.85;;
71083;SDS011;58741;52.672;13.548;2023-12-07T13:36:49;7.53;;;3.70;;
71083;SDS011;58741;52.672;13.548;2023-12-07T13:39:16;12.27;;;3.95;;
71083;SDS011;58741;52.672;13.548;2023-12-07T13:41:56;10.50;;;3.75;;
71083;SDS011;58741;52.672;13.548;2023-12-07T13:44:24;9.32;;;4.22;;
71083;SDS011;58741;52.672;13.548;2023-12-07T13:46:54;9.45;;;3.60;;
71083;SDS011;58741;52.672;13.548;2023-12-07T13:49:24;15.18;;;5.72;;
71083;SDS011;58741;52.672;13.548;2023-12-07T13:52:00;11.63;;;4.82;;
71083;SDS011;58741;52.672;13.548;2023-12-07T13:54:33;7.85;;;4.15;;
71083;SDS011;58741;52.672;13.548;2023-12-07T13:57:19;11.27;;;4.17;;
71083;SDS011;58741;52.672;13.548;2023-12-07T13:59:46;8.35;;;4.72;;
71083;SDS011;58741;52.672;13.548;2023-12-07T14:02:13;9.55;;;4.85;;
71083;SDS011;58741;52.672;13.548;2023-12-07T14:04:41;11.90;;;5.35;;
71083;SDS011;58741;52.672;13.548;2023-12-07T14:07:11;8.32;;;3.65;;
71083;SDS011;58741;52.672;13.548;2023-12-07T14:09:40;9.38;;;4.18;;
71083;SDS011;58741;52.672;13.548;2023-12-07T14:12:23;8.23;;;3.72;;
71083;SDS011;58741;52.672;13.548;2023-12-07T14:14:50;9.40;;;4.20;;
71083;SDS011;58741;52.672;13.548;2023-12-07T14:17:17;11.07;;;4.35;;
71083;SDS011;58741;52.672;13.548;2023-12-07T14:20:00;10.38;;;4.82;;
71083;SDS011;58741;52.672;13.548;2023-12-07T14:22:47;11.48;;;4.60;;
71083;SDS011;58741;52.672;13.548;2023-12-07T14:25:15;17.67;;;5.18;;
71083;SDS011;58741;52.672;13.548;2023-12-07T14:27:44;11.43;;;4.70;;
71083;SDS011;58741;52.672;13.548;2023-12-07T14:30:11;9.13;;;4.40;;
71083;SDS011;58741;52.672;13.548;2023-12-07T14:32:38;8.32;;;4.05;;
71083;SDS011;58741;52.672;13.548;2023-12-07T14:35:10;15.85;;;4.13;;
71083;SDS011;58741;52.672;13.548;2023-12-07T14:37:38;13.00;;;4.25;;
71083;SDS011;58741;52.672;13.548;2023-12-07T14:40:07;11.85;;;3.17;;
71083;SDS011;58741;52.672;13.548;2023-12-07T14:42:35;10.95;;;4.05;;
71083;SDS011;58741;52.672;13.548;2023-12-07T14:45:02;7.38;;;3.55;;
71083;SDS011;58741;52.672;13.548;2023-12-07T14:47:30;8.70;;;4.25;;